createdAt,value
2019-04-03T00:01:34.065Z,8.73
2019-04-03T00:04:07.139Z,8.68
2019-04-03T00:06:39.710Z,8.65
2019-04-03T00:09:12.754Z,8.61
2019-04-03T00:11:47.090Z,8.57
2019-04-03T00:14:21.417Z,8.53
2019-04-03T00:16:54.129Z,8.49
2019-04-03T00:19:27.689Z,8.45
2019-04-03T00:22:01.548Z,8.41
2019-04-03T00:24:34.974Z,8.37
2019-04-03T00:27:07.486Z,8.31
2019-04-03T00:29:40.315Z,8.26
2019-04-03T00:32:13.305Z,8.22
2019-04-03T00:34:45.902Z,8.19
2019-04-03T00:37:21.530Z,8.16
2019-04-03T00:39:56.570Z,8.13
2019-04-03T00:42:29.149Z,8.09
2019-04-03T00:45:03.649Z,8.05
2019-04-03T00:47:36.236Z,8.05
2019-04-03T00:50:08.778Z,8.03
2019-04-03T00:52:42.919Z,8.03
2019-04-03T00:55:15.970Z,8.03
2019-04-03T00:57:49.551Z,8.04
2019-04-03T01:00:22.839Z,8.07
2019-04-03T01:02:58.140Z,8.09
2019-04-03T01:05:31.322Z,8.09
2019-04-03T01:08:04.788Z,8.08
2019-04-03T01:10:37.293Z,8.09
2019-04-03T01:13:09.899Z,8.07
2019-04-03T01:15:43.675Z,8.03
2019-04-03T01:18:16.238Z,7.99
2019-04-03T01:20:48.822Z,7.97
2019-04-03T01:23:21.656Z,7.95
2019-04-03T01:25:54.230Z,7.92
2019-04-03T01:28:26.766Z,7.90
2019-04-03T01:30:59.631Z,7.85
2019-04-03T01:33:32.352Z,7.83
2019-04-03T01:36:05.020Z,7.78
2019-04-03T01:38:38.950Z,7.74
2019-04-03T01:41:11.791Z,7.70
2019-04-03T01:43:44.971Z,7.69
2019-04-03T01:46:17.715Z,7.66
2019-04-03T01:48:53.944Z,7.63
2019-04-03T01:51:27.745Z,7.59
2019-04-03T01:54:06.141Z,7.57
2019-04-03T01:56:39.094Z,7.57
2019-04-03T01:59:13.095Z,7.55
2019-04-03T02:01:49.152Z,7.55
2019-04-03T02:04:21.772Z,7.58
2019-04-03T02:06:54.720Z,7.54
2019-04-03T02:09:27.278Z,7.51
2019-04-03T02:11:59.908Z,7.51
2019-04-03T02:14:33.938Z,7.50
2019-04-03T02:17:06.406Z,7.51
2019-04-03T02:19:39.005Z,7.48
2019-04-03T02:22:11.825Z,7.44
2019-04-03T02:24:44.473Z,7.42
2019-04-03T02:27:16.943Z,7.40
2019-04-03T02:29:54.243Z,7.38
2019-04-03T02:32:27.078Z,7.35
2019-04-03T02:34:59.658Z,7.34
2019-04-03T02:37:32.375Z,7.33
2019-04-03T02:40:06.539Z,7.32
2019-04-03T02:42:41.237Z,7.29
2019-04-03T02:45:16.901Z,7.26
2019-04-03T02:47:49.463Z,7.21
2019-04-03T02:50:26.502Z,7.20
2019-04-03T02:52:59.555Z,7.19
2019-04-03T02:55:32.301Z,7.19
2019-04-03T02:58:06.984Z,7.17
2019-04-03T03:00:39.515Z,7.15
2019-04-03T03:03:12.037Z,7.13
2019-04-03T03:05:45.352Z,7.12
2019-04-03T03:08:18.225Z,7.11
2019-04-03T03:10:52.931Z,7.09
2019-04-03T03:13:27.120Z,7.08
2019-04-03T03:16:00.319Z,7.06
2019-04-03T03:18:33.386Z,7.05
2019-04-03T03:21:07.348Z,7.05
2019-04-03T03:23:40.587Z,7.06
2019-04-03T03:26:13.404Z,7.05
2019-04-03T03:28:47.923Z,7.05
2019-04-03T03:31:44.432Z,7.05
2019-04-03T03:34:51.492Z,7.06
2019-04-03T03:37:28.619Z,7.06
2019-04-03T03:40:02.259Z,7.09
2019-04-03T03:42:35.920Z,7.07
2019-04-03T03:45:10.521Z,7.06
2019-04-03T03:47:45.143Z,7.05
2019-04-03T03:50:26.261Z,7.04
2019-04-03T03:52:59.643Z,7.03
2019-04-03T03:55:34.368Z,7.05
2019-04-03T03:58:11.058Z,7.02
2019-04-03T04:00:51.173Z,6.99
2019-04-03T04:03:24.876Z,6.96
2019-04-03T04:05:58.081Z,6.98
2019-04-03T04:08:31.284Z,7.01
2019-04-03T04:11:03.846Z,6.99
2019-04-03T04:13:37.869Z,6.96
2019-04-03T04:16:10.605Z,6.94
2019-04-03T04:18:43.402Z,6.92
2019-04-03T04:21:18.069Z,6.92
2019-04-03T04:23:50.985Z,6.90
2019-04-03T04:26:23.786Z,6.87
2019-04-03T04:28:56.893Z,6.84
2019-04-03T04:31:29.926Z,6.83
2019-04-03T04:34:04.157Z,6.81
2019-04-03T04:36:37.743Z,6.77
2019-04-03T04:39:12.424Z,6.72
2019-04-03T04:41:46.960Z,6.74
2019-04-03T04:44:20.327Z,6.70
2019-04-03T04:46:52.980Z,6.74
2019-04-03T04:49:26.646Z,6.70
2019-04-03T04:52:01.677Z,6.66
2019-04-03T04:54:35.218Z,6.64
2019-04-03T04:57:09.518Z,6.70
2019-04-03T04:59:44.319Z,6.76
2019-04-03T05:02:19.743Z,6.71
2019-04-03T05:04:53.907Z,6.71
2019-04-03T05:07:30.826Z,6.71
2019-04-03T05:10:05.885Z,6.70
2019-04-03T05:12:42.652Z,6.69
2019-04-03T05:15:19.557Z,6.67
2019-04-03T05:17:54.208Z,6.63
2019-04-03T05:20:26.869Z,6.63
2019-04-03T05:23:01.159Z,6.59
2019-04-03T05:25:34.000Z,6.57
2019-04-03T05:28:06.670Z,6.56
2019-04-03T05:30:39.759Z,6.59
2019-04-03T05:33:13.073Z,6.60
2019-04-03T05:35:48.192Z,6.59
2019-04-03T05:38:22.500Z,6.58
2019-04-03T05:40:56.491Z,6.59
2019-04-03T05:43:31.095Z,6.60
2019-04-03T05:46:06.357Z,6.61
2019-04-03T05:48:39.010Z,6.69
2019-04-03T05:51:11.929Z,6.65
2019-04-03T05:53:46.851Z,6.61
2019-04-03T05:56:19.610Z,6.66
2019-04-03T05:58:56.702Z,6.74
2019-04-03T06:01:30.892Z,6.72
2019-04-03T06:04:05.219Z,6.69
2019-04-03T06:06:39.376Z,6.69
2019-04-03T06:09:11.910Z,6.68
2019-04-03T06:11:44.941Z,6.68
2019-04-03T06:14:19.057Z,6.66
2019-04-03T06:16:52.131Z,6.67
2019-04-03T06:19:25.930Z,6.71
2019-04-03T06:21:58.517Z,6.72
2019-04-03T06:24:30.988Z,6.74
2019-04-03T06:27:04.997Z,6.74
2019-04-03T06:29:38.156Z,6.71
2019-04-03T06:32:12.721Z,6.70
2019-04-03T06:34:46.586Z,6.70
2019-04-03T06:37:20.166Z,6.67
2019-04-03T06:39:54.176Z,6.65
2019-04-03T06:42:28.594Z,6.64
2019-04-03T06:45:03.343Z,6.64
2019-04-03T06:47:36.040Z,6.62
2019-04-03T06:50:10.357Z,6.57
2019-04-03T06:52:45.315Z,6.53
2019-04-03T06:55:20.584Z,6.52
2019-04-03T06:57:53.622Z,6.50
2019-04-03T07:00:26.776Z,6.44
2019-04-03T07:03:01.500Z,6.38
2019-04-03T07:05:37.417Z,6.37
2019-04-03T07:08:10.012Z,6.39
2019-04-03T07:10:54.218Z,6.40
2019-04-03T07:13:29.457Z,6.42
2019-04-03T07:16:06.325Z,6.44
2019-04-03T07:18:40.404Z,6.55
2019-04-03T07:21:14.437Z,6.64
2019-04-03T07:23:50.386Z,6.73
2019-04-03T07:26:23.549Z,6.87
2019-04-03T07:28:57.779Z,6.93
2019-04-03T07:31:33.859Z,6.95
2019-04-03T07:34:11.904Z,6.99
2019-04-03T07:36:46.340Z,7.06
2019-04-03T07:39:28.667Z,7.12
2019-04-03T07:42:01.206Z,7.26
2019-04-03T07:44:34.185Z,7.33
2019-04-03T07:47:06.810Z,7.35
2019-04-03T07:49:40.700Z,7.37
2019-04-03T07:52:16.793Z,7.49
2019-04-03T07:54:51.876Z,7.61
2019-04-03T07:57:28.110Z,7.78
2019-04-03T08:00:06.195Z,7.93
2019-04-03T08:02:39.761Z,8.03
2019-04-03T08:05:15.620Z,8.10
2019-04-03T08:07:48.676Z,8.15
2019-04-03T08:10:22.338Z,8.04
2019-04-03T08:13:05.030Z,7.99
2019-04-03T08:15:39.067Z,7.90
2019-04-03T08:18:11.977Z,7.82
2019-04-03T08:20:48.990Z,7.79
2019-04-03T08:23:22.346Z,7.78
2019-04-03T08:25:58.117Z,7.77
2019-04-03T08:28:31.059Z,7.78
2019-04-03T08:31:03.807Z,7.78
2019-04-03T08:33:38.081Z,7.83
2019-04-03T08:36:22.536Z,7.90
2019-04-03T08:38:58.874Z,7.94
2019-04-03T08:41:36.447Z,8.01
2019-04-03T08:44:11.106Z,8.11
2019-04-03T08:46:47.511Z,8.27
2019-04-03T08:49:21.358Z,8.44
2019-04-03T08:51:54.850Z,8.70
2019-04-03T08:54:27.315Z,8.91
2019-04-03T08:57:02.447Z,9.10
2019-04-03T08:59:35.143Z,9.31
2019-04-03T09:02:12.738Z,9.41
2019-04-03T09:04:48.786Z,9.58
2019-04-03T09:07:24.926Z,9.79
2019-04-03T09:10:07.812Z,9.81
2019-04-03T09:12:45.389Z,10.00
2019-04-03T09:15:20.542Z,10.13
2019-04-03T09:17:55.482Z,10.00
2019-04-03T09:20:29.191Z,10.00
2019-04-03T09:23:02.106Z,9.91
2019-04-03T09:25:35.047Z,9.83
2019-04-03T09:28:22.859Z,9.66
2019-04-03T09:30:57.056Z,9.39
2019-04-03T09:33:30.574Z,9.19
2019-04-03T09:36:04.418Z,8.99
2019-04-03T09:38:40.649Z,8.91
2019-04-03T09:41:14.301Z,8.80
2019-04-03T09:43:47.042Z,8.75
2019-04-03T09:46:19.762Z,8.59
2019-04-03T09:48:52.442Z,8.49
2019-04-03T09:51:25.249Z,8.43
2019-04-03T09:53:58.342Z,8.46
2019-04-03T09:56:31.861Z,8.54
2019-04-03T09:59:06.666Z,8.70
2019-04-03T10:01:42.255Z,8.80
2019-04-03T10:04:15.352Z,8.84
2019-04-03T10:06:47.973Z,9.03
2019-04-03T10:09:21.206Z,9.21
2019-04-03T10:11:55.799Z,9.42
2019-04-03T10:14:28.973Z,9.64
2019-04-03T10:17:01.515Z,9.95
2019-04-03T10:19:35.671Z,10.28
2019-04-03T10:22:11.893Z,10.51
2019-04-03T10:24:45.930Z,10.45
2019-04-03T10:27:19.114Z,10.63
2019-04-03T10:30:00.043Z,10.79
2019-04-03T10:32:45.094Z,10.82
2019-04-03T10:35:18.484Z,10.63
2019-04-03T10:37:52.159Z,10.61
2019-04-03T10:40:26.919Z,10.46
2019-04-03T10:43:02.825Z,10.36
2019-04-03T10:45:40.931Z,10.38
2019-04-03T10:48:17.140Z,10.42
2019-04-03T10:50:49.871Z,10.21
2019-04-03T10:53:25.775Z,10.05
2019-04-03T10:55:59.846Z,9.81
2019-04-03T10:58:34.519Z,9.80
2019-04-03T11:01:07.544Z,9.91
2019-04-03T11:03:40.153Z,9.88
2019-04-03T11:06:13.439Z,9.88
2019-04-03T11:08:47.755Z,9.88
2019-04-03T11:11:20.898Z,9.92
2019-04-03T11:13:55.499Z,10.19
2019-04-03T11:16:29.993Z,10.44
2019-04-03T11:19:06.767Z,10.55
2019-04-03T11:21:43.251Z,10.72
2019-04-03T11:24:19.210Z,10.92
2019-04-03T11:26:54.850Z,11.00
2019-04-03T11:29:28.266Z,11.01
2019-04-03T11:32:01.064Z,11.04
2019-04-03T11:34:36.290Z,11.04
2019-04-03T11:37:10.095Z,10.81
2019-04-03T11:39:45.645Z,10.74
2019-04-03T11:42:24.907Z,10.57
2019-04-03T11:45:03.502Z,10.48
2019-04-03T11:47:39.239Z,10.38
2019-04-03T11:50:14.416Z,10.39
2019-04-03T11:52:47.586Z,10.30
2019-04-03T11:55:21.093Z,10.31
2019-04-03T11:57:55.183Z,10.37
2019-04-03T12:00:32.137Z,10.39
2019-04-03T12:03:06.643Z,10.63
2019-04-03T12:05:41.634Z,11.01
2019-04-03T12:08:15.510Z,11.45
2019-04-03T12:10:48.805Z,11.76
2019-04-03T12:13:29.913Z,11.86
2019-04-03T12:16:04.390Z,11.69
2019-04-03T12:18:39.742Z,11.48
2019-04-03T12:21:14.370Z,11.34
2019-04-03T12:23:58.524Z,11.10
2019-04-03T12:26:55.916Z,10.88
2019-04-03T12:29:34.680Z,10.66
2019-04-03T12:32:10.315Z,10.50
2019-04-03T12:34:43.124Z,10.51
2019-04-03T12:37:19.593Z,10.58
2019-04-03T12:39:56.236Z,10.60
2019-04-03T12:42:33.138Z,10.66
2019-04-03T12:45:09.485Z,10.60
2019-04-03T12:47:50.965Z,10.67
2019-04-03T12:50:29.252Z,10.78
2019-04-03T12:53:03.409Z,10.85
2019-04-03T12:55:36.342Z,10.92
2019-04-03T12:58:17.203Z,11.08
2019-04-03T13:00:50.480Z,11.19
2019-04-03T13:03:25.685Z,11.14
2019-04-03T13:05:59.633Z,11.12
2019-04-03T13:08:32.990Z,11.10
2019-04-03T13:11:06.497Z,11.01
2019-04-03T13:13:41.295Z,10.81
2019-04-03T13:16:15.826Z,10.77
2019-04-03T13:18:49.518Z,10.83
2019-04-03T13:21:22.939Z,10.85
2019-04-03T13:23:59.874Z,10.82
2019-04-03T13:26:34.166Z,10.96
2019-04-03T13:29:08.927Z,11.06
2019-04-03T13:31:50.601Z,11.13
2019-04-03T13:34:36.196Z,11.26
2019-04-03T13:37:09.998Z,11.32
2019-04-03T13:39:45.149Z,11.38
2019-04-03T13:42:17.988Z,11.58
2019-04-03T13:44:53.100Z,11.73
2019-04-03T13:47:26.263Z,11.74
2019-04-03T13:50:03.315Z,11.70
2019-04-03T13:52:43.052Z,11.68
2019-04-03T13:55:23.508Z,11.55
2019-04-03T13:57:56.895Z,11.40
2019-04-03T14:00:33.825Z,11.31
2019-04-03T14:03:13.152Z,11.20
2019-04-03T14:05:49.453Z,11.16
2019-04-03T14:08:22.231Z,10.99
2019-04-03T14:11:00.390Z,10.91
2019-04-03T14:13:42.577Z,10.88
2019-04-03T14:16:21.741Z,10.91
2019-04-03T14:18:57.839Z,10.96
2019-04-03T14:21:30.714Z,10.99
2019-04-03T14:24:03.780Z,10.98
2019-04-03T14:26:39.294Z,10.98
2019-04-03T14:29:13.744Z,10.99
2019-04-03T14:31:48.554Z,11.02
2019-04-03T14:34:24.577Z,11.01
2019-04-03T14:36:58.336Z,11.00
2019-04-03T14:39:39.252Z,10.95
2019-04-03T14:42:15.218Z,10.81
2019-04-03T14:44:51.280Z,10.68
2019-04-03T14:47:27.917Z,10.70
2019-04-03T14:50:05.382Z,10.68
2019-04-03T14:52:44.128Z,10.71
2019-04-03T14:55:24.350Z,10.73
2019-04-03T14:57:57.682Z,10.71
2019-04-03T15:00:33.225Z,10.71
2019-04-03T15:03:13.849Z,10.79
2019-04-03T15:05:47.024Z,10.84
2019-04-03T15:08:22.835Z,10.91
2019-04-03T15:10:57.018Z,10.92
2019-04-03T15:13:30.796Z,10.92
2019-04-03T15:16:06.296Z,10.91
2019-04-03T15:18:54.686Z,10.91
2019-04-03T15:21:32.338Z,10.93
2019-04-03T15:24:11.383Z,10.84
2019-04-03T15:26:46.999Z,10.84
2019-04-03T15:29:19.737Z,10.81
2019-04-03T15:31:53.938Z,10.73
2019-04-03T15:34:30.188Z,10.65
2019-04-03T15:37:04.251Z,10.62
2019-04-03T15:39:41.748Z,10.56
2019-04-03T15:42:20.926Z,10.49
2019-04-03T15:45:00.987Z,10.48
2019-04-03T15:47:55.257Z,10.41
2019-04-03T15:50:33.400Z,10.32
2019-04-03T15:53:14.199Z,10.23
2019-04-03T15:55:48.037Z,10.10
2019-04-03T15:58:27.174Z,9.98
2019-04-03T16:01:09.253Z,9.96
2019-04-03T16:03:44.291Z,9.93
2019-04-03T16:06:26.640Z,9.92
2019-04-03T16:09:01.297Z,9.89
2019-04-03T16:11:38.081Z,9.92
2019-04-03T16:14:12.482Z,9.89
2019-04-03T16:16:48.418Z,9.86
2019-04-03T16:19:24.710Z,9.82
2019-04-03T16:21:59.106Z,9.77
2019-04-03T16:24:32.433Z,9.78
2019-04-03T16:27:07.323Z,9.72
2019-04-03T16:29:41.914Z,9.66
2019-04-03T16:32:15.420Z,9.60
2019-04-03T16:34:50.705Z,9.55
2019-04-03T16:37:23.489Z,9.52
2019-04-03T16:39:57.957Z,9.48
2019-04-03T16:42:33.714Z,9.48
2019-04-03T16:45:12.009Z,9.46
2019-04-03T16:47:50.475Z,9.36
2019-04-03T16:50:27.449Z,9.26
2019-04-03T16:53:01.803Z,9.20
2019-04-03T16:55:35.686Z,9.15
2019-04-03T16:58:15.767Z,9.14
2019-04-03T17:00:54.176Z,9.12
2019-04-03T17:03:31.754Z,9.11
2019-04-03T17:06:07.938Z,9.06
2019-04-03T17:08:45.341Z,8.97
2019-04-03T17:11:22.623Z,8.84
2019-04-03T17:13:57.452Z,8.77
2019-04-03T17:16:37.369Z,8.67
2019-04-03T17:19:12.307Z,8.58
2019-04-03T17:21:47.164Z,8.56
2019-04-03T17:24:43.639Z,8.51
2019-04-03T17:27:24.956Z,8.46
2019-04-03T17:29:58.761Z,8.42
2019-04-03T17:32:35.462Z,8.40
2019-04-03T17:35:09.939Z,8.38
2019-04-03T17:37:43.647Z,8.36
2019-04-03T17:40:18.787Z,8.33
2019-04-03T17:42:51.468Z,8.31
2019-04-03T17:45:24.746Z,8.30
2019-04-03T17:47:58.838Z,8.28
2019-04-03T17:50:31.648Z,8.26
2019-04-03T17:53:12.793Z,8.22
2019-04-03T17:55:46.012Z,8.37
2019-04-03T17:58:24.380Z,8.43
2019-04-03T18:00:59.014Z,8.35
2019-04-03T18:03:35.113Z,8.25
2019-04-03T18:06:08.915Z,8.17
2019-04-03T18:08:44.588Z,8.11
2019-04-03T18:11:18.138Z,8.08
2019-04-03T18:13:52.982Z,8.05
2019-04-03T18:16:30.394Z,8.03
2019-04-03T18:19:04.937Z,8.04
2019-04-03T18:21:39.498Z,8.01
2019-04-03T18:24:13.430Z,7.97
2019-04-03T18:26:47.927Z,7.98
2019-04-03T18:29:24.324Z,7.93
2019-04-03T18:31:59.069Z,7.87
2019-04-03T18:34:31.964Z,7.87
2019-04-03T18:37:18.125Z,7.83
2019-04-03T18:39:51.504Z,7.79
2019-04-03T18:42:24.468Z,7.73
2019-04-03T18:44:59.195Z,7.68
2019-04-03T18:47:41.121Z,7.61
2019-04-03T18:50:17.246Z,7.57
2019-04-03T18:52:52.812Z,7.55
2019-04-03T18:55:26.698Z,7.54
2019-04-03T18:57:59.377Z,7.56
2019-04-03T19:00:34.301Z,7.55
2019-04-03T19:03:11.207Z,7.55
2019-04-03T19:05:46.410Z,7.54
2019-04-03T19:08:19.136Z,7.54
2019-04-03T19:11:02.121Z,7.55
2019-04-03T19:13:36.691Z,7.53
2019-04-03T19:16:10.710Z,7.51
2019-04-03T19:18:46.665Z,7.52
2019-04-03T19:21:28.463Z,7.51
2019-04-03T19:24:03.908Z,7.50
2019-04-03T19:26:37.457Z,7.49
2019-04-03T19:29:10.318Z,7.47
2019-04-03T19:31:43.955Z,7.46
2019-04-03T19:34:19.897Z,7.47
2019-04-03T19:36:55.227Z,7.46
2019-04-03T19:39:29.163Z,7.49
2019-04-03T19:42:04.625Z,7.47
2019-04-03T19:44:41.583Z,7.48
2019-04-03T19:47:16.778Z,7.48
2019-04-03T19:50:00.866Z,7.48
2019-04-03T19:52:37.094Z,7.46
2019-04-03T19:55:12.121Z,7.43
2019-04-03T19:57:45.741Z,7.45
2019-04-03T20:00:27.563Z,7.42
2019-04-03T20:03:00.778Z,7.37
2019-04-03T20:05:34.516Z,7.34
2019-04-03T20:08:08.153Z,7.33
2019-04-03T20:10:40.926Z,7.32
2019-04-03T20:13:15.933Z,7.32
2019-04-03T20:15:48.569Z,7.31
2019-04-03T20:18:21.322Z,7.29
2019-04-03T20:20:59.446Z,7.27
2019-04-03T20:23:35.038Z,7.25
2019-04-03T20:26:12.517Z,7.22
2019-04-03T20:28:44.964Z,7.21
2019-04-03T20:31:17.694Z,7.18
2019-04-03T20:33:50.872Z,7.15
2019-04-03T20:36:23.909Z,7.16
2019-04-03T20:38:58.286Z,7.14
2019-04-03T20:41:34.654Z,7.10
2019-04-03T20:44:09.896Z,7.11
2019-04-03T20:46:42.599Z,7.12
2019-04-03T20:49:15.155Z,7.10
2019-04-03T20:51:48.819Z,7.07
2019-04-03T20:54:24.148Z,7.06
2019-04-03T20:57:01.952Z,7.03
2019-04-03T20:59:37.226Z,7.04
2019-04-03T21:02:10.766Z,7.05
2019-04-03T21:04:48.739Z,7.04
2019-04-03T21:07:25.699Z,6.98
2019-04-03T21:10:01.571Z,6.96
2019-04-03T21:12:36.441Z,6.93
2019-04-03T21:15:18.663Z,6.92
2019-04-03T21:17:52.950Z,6.89
2019-04-03T21:20:27.124Z,6.87
2019-04-03T21:23:03.640Z,6.86
2019-04-03T21:25:40.711Z,6.83
2019-04-03T21:28:13.787Z,6.81
2019-04-03T21:30:46.979Z,6.78
2019-04-03T21:33:19.979Z,6.79
2019-04-03T21:35:52.576Z,6.74
2019-04-03T21:38:25.738Z,6.72
2019-04-03T21:40:58.330Z,6.72
2019-04-03T21:43:30.938Z,6.72
2019-04-03T21:46:04.978Z,6.70
2019-04-03T21:48:37.748Z,6.69
2019-04-03T21:51:10.281Z,6.66
2019-04-03T21:53:43.656Z,6.66
2019-04-03T21:56:16.503Z,6.63
2019-04-03T21:58:50.197Z,6.66
2019-04-03T22:01:25.475Z,6.64
2019-04-03T22:03:58.075Z,6.62
2019-04-03T22:06:30.674Z,6.62
2019-04-03T22:09:11.411Z,6.62
2019-04-03T22:11:44.070Z,6.61
2019-04-03T22:14:16.784Z,6.60
2019-04-03T22:16:50.796Z,6.59
2019-04-03T22:19:27.435Z,6.57
2019-04-03T22:22:01.045Z,6.60
2019-04-03T22:24:37.753Z,6.60
2019-04-03T22:27:12.122Z,6.63
2019-04-03T22:29:46.446Z,6.63
2019-04-03T22:32:20.700Z,6.64
2019-04-03T22:34:53.383Z,6.63
2019-04-03T22:37:27.750Z,6.62
2019-04-03T22:40:04.440Z,6.62
2019-04-03T22:42:37.005Z,6.58
2019-04-03T22:45:09.770Z,6.56
2019-04-03T22:47:47.416Z,6.55
2019-04-03T22:50:24.843Z,6.57
2019-04-03T22:52:58.281Z,6.55
2019-04-03T22:55:32.539Z,6.54
2019-04-03T22:58:05.954Z,6.52
2019-04-03T23:00:41.242Z,6.51
2019-04-03T23:03:14.144Z,6.51
2019-04-03T23:05:48.513Z,6.51
2019-04-03T23:08:22.781Z,6.53
2019-04-03T23:11:00.695Z,6.52
2019-04-03T23:13:35.753Z,6.49
2019-04-03T23:16:09.606Z,6.48
2019-04-03T23:18:46.853Z,6.47
2019-04-03T23:21:23.525Z,6.46
2019-04-03T23:23:58.444Z,6.44
2019-04-03T23:26:32.827Z,6.43
2019-04-03T23:29:06.520Z,6.40
2019-04-03T23:31:39.146Z,6.36
2019-04-03T23:34:13.302Z,6.32
2019-04-03T23:36:47.670Z,6.24
2019-04-03T23:39:20.966Z,6.17
2019-04-03T23:41:57.479Z,6.08
2019-04-03T23:44:30.065Z,6.00
2019-04-03T23:47:02.739Z,5.94
2019-04-03T23:49:36.790Z,5.89
2019-04-03T23:52:09.456Z,5.89
2019-04-03T23:54:42.036Z,5.87
2019-04-03T23:57:17.080Z,5.83
2019-04-03T23:59:49.616Z,5.79
